Time;durP1;ratioP1;P1;durP2;ratioP2;P2;SDS_P1;SDS_P2;PMS_P1;PMS_P2;Temp;Humidity;BMP_temperature;BMP_pressure;BME280_temperature;BME280_humidity;BME280_pressure;Samples;Min_cycle;Max_cycle;Signal;HPM_P1;HPM_P2
2022/09/14 00:01:16;;;;;;;8.20;3.00;;;;;;;19.33;70.05;100756.47;5000329;28;20030;-75
2022/09/14 00:03:42;;;;;;;10.95;2.60;;;;;;;19.41;70.21;100751.78;5017877;28;20026;-75
2022/09/14 00:06:13;;;;;;;8.20;2.50;;;;;;;19.44;68.78;100747.22;5018028;28;20048;-74
2022/09/14 00:08:39;;;;;;;8.65;2.50;;;;;;;19.49;68.69;100753.31;5016955;28;20110;-74
2022/09/14 00:11:06;;;;;;;6.13;2.35;;;;;;;19.45;69.31;100748.09;5017182;28;20058;-75
2022/09/14 00:13:32;;;;;;;9.95;2.70;;;;;;;19.31;68.78;100737.72;4999549;28;20378;-74
2022/09/14 00:16:05;;;;;;;8.90;2.38;;;;;;;19.27;69.23;100739.63;5017115;28;20121;-74
2022/09/14 00:18:32;;;;;;;7.45;2.58;;;;;;;19.30;69.46;100735.09;5017135;28;20112;-74
2022/09/14 00:21:00;;;;;;;10.82;2.53;;;;;;;19.31;69.46;100731.50;4999431;28;20065;-75
2022/09/14 00:23:25;;;;;;;6.80;2.42;;;;;;;19.29;69.40;100730.69;5017022;28;20054;-75
2022/09/14 00:25:51;;;;;;;9.13;2.50;;;;;;;19.12;70.11;100718.59;5016616;28;20037;-74
2022/09/14 00:28:16;;;;;;;8.20;2.50;;;;;;;19.07;70.82;100727.69;5016805;28;20092;-77
2022/09/14 00:30:42;;;;;;;8.13;2.20;;;;;;;19.00;70.76;100719.78;4999815;28;20041;-74
2022/09/14 00:33:08;;;;;;;7.18;2.33;;;;;;;18.94;71.52;100719.97;5016502;28;20117;-74
2022/09/14 00:35:34;;;;;;;7.68;2.60;;;;;;;18.91;71.29;100708.44;5016666;28;20119;-75
2022/09/14 00:37:59;;;;;;;8.18;2.50;;;;;;;18.88;71.22;100712.06;5016365;28;20038;-74
2022/09/14 00:40:25;;;;;;;10.85;2.65;;;;;;;18.90;71.47;100706.69;5016613;28;20112;-75
2022/09/14 00:42:50;;;;;;;9.05;2.45;;;;;;;18.91;71.09;100703.09;4999109;28;20034;-75
2022/09/14 00:45:21;;;;;;;10.70;2.70;;;;;;;18.89;71.45;100705.81;4982693;28;20038;-74
2022/09/14 00:47:51;;;;;;;12.23;2.50;;;;;;;18.87;71.92;100704.97;5016434;28;20034;-74
2022/09/14 00:50:17;;;;;;;9.55;2.75;;;;;;;18.79;72.61;100700.72;5016236;28;20030;-76
2022/09/14 00:52:46;;;;;;;8.80;2.35;;;;;;;18.83;72.84;100697.94;4998763;28;20044;-75
2022/09/14 00:55:15;;;;;;;10.60;2.80;;;;;;;18.81;72.50;100688.19;5016404;28;20029;-74
2022/09/14 00:57:48;;;;;;;6.90;2.65;;;;;;;18.76;72.12;100691.88;5016321;28;20048;-74
2022/09/14 01:00:18;;;;;;;9.30;2.58;;;;;;;18.75;72.35;100682.06;5016171;28;20429;-74
2022/09/14 01:02:44;;;;;;;8.45;2.70;;;;;;;18.77;72.33;100676.69;5015837;28;20049;-74
2022/09/14 01:05:11;;;;;;;10.68;2.95;;;;;;;18.71;72.25;100672.38;5015670;28;20030;-74
2022/09/14 01:07:58;;;;;;;9.90;2.60;;;;;;;18.72;72.16;100665.22;5016737;28;20041;-74
2022/09/14 01:10:32;;;;;;;6.60;2.20;;;;;;;18.67;72.76;100677.78;5015795;28;20025;-74
2022/09/14 01:13:06;;;;;;;7.32;2.53;;;;;;;18.71;72.65;100682.19;5015708;28;20037;-74
2022/09/14 01:16:12;;;;;;;7.57;2.50;;;;;;;18.72;72.44;100671.44;5016213;28;20037;-74
2022/09/14 01:18:48;;;;;;;8.85;2.53;;;;;;;18.64;72.47;100654.66;5016236;28;20030;-74
2022/09/14 01:21:26;;;;;;;9.10;2.60;;;;;;;18.61;73.26;100653.88;5016442;28;20033;-74
2022/09/14 01:24:14;;;;;;;9.70;2.40;;;;;;;18.61;72.82;100660.09;4979592;28;20078;-75
2022/09/14 01:27:12;;;;;;;8.40;2.67;;;;;;;18.53;72.66;100662.97;4976807;28;20031;-74
2022/09/14 01:29:47;;;;;;;13.60;2.50;;;;;;;18.52;72.42;100665.69;4974171;28;20062;-74
2022/09/14 01:32:29;;;;;;;9.45;2.88;;;;;;;18.43;72.64;100661.44;4991882;28;20055;-74
2022/09/14 01:35:21;;;;;;;9.00;2.47;;;;;;;18.38;73.42;100668.69;4977005;28;20034;-74
2022/09/14 01:37:55;;;;;;;9.60;2.57;;;;;;;18.32;73.35;100662.59;4977375;28;20081;-76
2022/09/14 01:40:35;;;;;;;8.70;2.30;;;;;;;18.40;73.27;100668.66;4976466;28;20302;-74
2022/09/14 01:43:09;;;;;;;9.77;2.30;;;;;;;18.37;72.89;100666.94;4976745;28;20081;-74
2022/09/14 01:45:42;;;;;;;10.13;2.40;;;;;;;18.37;72.75;100666.03;4976631;28;20030;-74
2022/09/14 01:48:11;;;;;;;7.30;2.60;;;;;;;18.40;72.98;100668.66;4976609;28;20035;-74
2022/09/14 01:50:46;;;;;;;6.40;2.35;;;;;;;18.39;72.35;100654.41;4976836;28;20114;-74
2022/09/14 01:53:18;;;;;;;9.98;2.72;;;;;;;18.27;72.22;100650.22;4976079;28;20030;-75
2022/09/14 01:55:50;;;;;;;8.30;2.35;;;;;;;18.23;72.61;100650.34;4976892;28;20031;-75
2022/09/14 01:58:26;;;;;;;8.77;2.38;;;;;;;18.06;72.48;100642.72;4976531;28;20038;-74
2022/09/14 02:00:55;;;;;;;11.65;2.60;;;;;;;17.96;73.15;100643.84;4976210;28;20026;-75
2022/09/14 02:03:26;;;;;;;10.90;2.63;;;;;;;17.93;72.77;100643.91;4974924;28;20474;-75
2022/09/14 02:05:57;;;;;;;8.20;2.33;;;;;;;18.03;72.80;100650.81;4976347;28;20057;-75
2022/09/14 02:08:26;;;;;;;8.82;2.28;;;;;;;17.93;72.92;100646.59;4974603;28;20493;-75
2022/09/14 02:10:52;;;;;;;8.70;2.30;;;;;;;17.90;73.05;100644.88;4975653;28;20105;-75
2022/09/14 02:13:17;;;;;;;10.68;2.42;;;;;;;17.93;73.12;100642.09;4975834;28;20125;-75
2022/09/14 02:15:43;;;;;;;10.45;2.50;;;;;;;17.85;73.09;100645.88;4957956;28;20133;-75
2022/09/14 02:18:09;;;;;;;7.97;2.50;;;;;;;17.87;73.06;100650.28;4976124;28;20039;-75
2022/09/14 02:20:41;;;;;;;9.05;2.33;;;;;;;17.83;73.59;100651.25;4975476;28;20419;-75
2022/09/14 02:23:07;;;;;;;9.50;3.10;;;;;;;17.92;73.50;100652.84;4994481;28;20201;-75
2022/09/14 02:25:35;;;;;;;6.75;2.47;;;;;;;17.83;73.79;100648.59;4997430;28;20470;-75
2022/09/14 02:28:00;;;;;;;6.18;2.50;;;;;;;17.78;73.72;100650.50;5014497;28;20037;-75
2022/09/14 02:30:27;;;;;;;7.15;2.60;;;;;;;17.76;73.85;100645.16;5014884;28;20549;-76
2022/09/14 02:33:25;;;;;;;10.23;2.50;;;;;;;17.81;73.35;100650.41;5014262;28;20411;-76
2022/09/14 02:35:55;;;;;;;6.88;2.40;;;;;;;17.77;73.06;100648.72;5014831;28;20470;-75
2022/09/14 02:38:28;;;;;;;7.97;2.60;;;;;;;17.73;73.33;100653.22;5014484;28;20121;-76
2022/09/14 02:41:27;;;;;;;9.40;2.63;;;;;;;17.82;72.71;100646.84;5014147;28;20026;-76
2022/09/14 02:44:11;;;;;;;9.55;2.88;;;;;;;17.76;73.33;100642.47;5014433;28;20030;-75
2022/09/14 02:46:47;;;;;;;7.05;2.50;;;;;;;17.77;73.50;100649.63;5014655;28;20025;-75
2022/09/14 02:49:19;;;;;;;10.75;2.65;;;;;;;17.75;74.23;100648.75;5014525;28;20036;-75
2022/09/14 02:52:00;;;;;;;8.33;2.40;;;;;;;17.78;74.34;100645.16;5014811;28;20034;-76
2022/09/14 02:54:49;;;;;;;9.13;2.73;;;;;;;17.80;74.12;100645.09;5014312;28;20319;-76
2022/09/14 02:57:14;;;;;;;7.53;2.60;;;;;;;17.73;74.57;100642.53;5014774;28;20107;-76
2022/09/14 02:59:40;;;;;;;7.03;2.45;;;;;;;17.76;73.85;100638.94;5014175;28;20177;-76
2022/09/14 03:02:05;;;;;;;11.25;2.58;;;;;;;17.77;74.54;100640.69;5014529;28;20042;-76
2022/09/14 03:04:31;;;;;;;8.27;2.85;;;;;;;17.75;74.46;100642.53;5014599;28;20044;-76
2022/09/14 03:06:56;;;;;;;9.20;2.60;;;;;;;17.69;74.71;100639.97;4996275;28;20038;-76
2022/09/14 03:09:22;;;;;;;10.02;2.80;;;;;;;17.70;74.32;100637.25;5013999;28;20033;-76
2022/09/14 03:11:47;;;;;;;10.60;2.80;;;;;;;17.62;74.60;100627.66;5014562;28;20053;-79
2022/09/14 03:14:13;;;;;;;6.82;2.60;;;;;;;17.66;74.67;100626.66;4980195;28;20030;-75
2022/09/14 03:16:38;;;;;;;8.98;2.80;;;;;;;17.73;74.80;100630.97;4996494;28;20040;-76
2022/09/14 03:19:05;;;;;;;8.45;2.70;;;;;;;17.66;75.51;100626.66;5013910;28;20112;-76
2022/09/14 03:21:31;;;;;;;8.80;2.65;;;;;;;17.61;75.15;100620.56;5013946;28;20050;-76
2022/09/14 03:23:56;;;;;;;8.93;2.78;;;;;;;17.61;75.55;100625.91;5014108;28;20442;-76
2022/09/14 03:26:24;;;;;;;9.15;2.70;;;;;;;17.51;75.82;100612.75;5013605;28;20065;-76
2022/09/14 03:28:51;;;;;;;9.02;2.63;;;;;;;17.45;75.81;100611.97;5017592;28;20033;-76
2022/09/14 03:31:16;;;;;;;11.18;3.05;;;;;;;17.47;75.54;100610.13;5018707;28;20366;-76
2022/09/14 03:33:42;;;;;;;7.78;2.72;;;;;;;17.49;75.47;100616.34;5017068;28;20473;-75
2022/09/14 03:36:18;;;;;;;9.18;2.88;;;;;;;17.50;75.13;100613.63;5000881;28;20117;-75
2022/09/14 03:38:48;;;;;;;8.65;2.55;;;;;;;17.38;75.20;100610.34;5018090;28;20033;-75
2022/09/14 03:41:14;;;;;;;6.38;2.15;;;;;;;17.33;75.43;100598.88;5001303;28;20347;-75
2022/09/14 03:43:41;;;;;;;9.23;2.60;;;;;;;17.34;75.72;100600.63;5018232;28;20030;-75
2022/09/14 03:46:08;;;;;;;8.40;2.40;;;;;;;17.28;75.91;100596.31;5000130;28;20445;-75
2022/09/14 03:48:34;;;;;;;7.25;2.80;;;;;;;17.28;75.41;100594.50;5017728;28;20033;-75
2022/09/14 03:51:01;;;;;;;7.53;2.60;;;;;;;17.23;75.82;100582.19;5017277;28;20466;-75
2022/09/14 03:53:26;;;;;;;7.50;2.58;;;;;;;17.28;75.49;100589.16;5018048;28;20061;-75
2022/09/14 03:55:52;;;;;;;10.05;2.70;;;;;;;17.22;75.49;100589.31;5017184;28;20473;-75
2022/09/14 03:58:18;;;;;;;7.13;2.70;;;;;;;17.15;75.85;100586.78;5017226;28;20037;-75
2022/09/14 04:00:43;;;;;;;8.07;2.45;;;;;;;17.09;75.65;100586.94;4999670;28;20045;-75
2022/09/14 04:03:08;;;;;;;6.72;2.38;;;;;;;17.05;75.87;100594.13;5017824;28;20041;-75
2022/09/14 04:05:34;;;;;;;7.10;2.50;;;;;;;17.08;75.99;100588.69;5017022;28;20038;-75
2022/09/14 04:07:59;;;;;;;9.25;2.70;;;;;;;17.05;76.74;100575.44;5016852;28;20042;-75
2022/09/14 04:10:25;;;;;;;9.98;2.70;;;;;;;17.01;75.93;100585.28;5017199;28;20036;-75
2022/09/14 04:12:50;;;;;;;7.50;2.30;;;;;;;16.98;76.42;100581.78;5017164;28;20122;-75
2022/09/14 04:15:16;;;;;;;7.32;2.40;;;;;;;16.91;76.36;100573.00;4999543;28;20417;-75
2022/09/14 04:17:41;;;;;;;7.47;2.60;;;;;;;16.90;76.17;100575.72;5017246;28;20038;-75
2022/09/14 04:20:07;;;;;;;6.50;2.40;;;;;;;16.88;76.28;100589.09;5017533;28;20068;-75
2022/09/14 04:22:33;;;;;;;10.10;2.80;;;;;;;16.92;76.21;100574.78;5016699;28;20054;-75
2022/09/14 04:24:58;;;;;;;8.35;2.30;;;;;;;16.90;75.71;100571.25;5017506;28;20037;-75
2022/09/14 04:27:23;;;;;;;11.02;2.85;;;;;;;16.95;76.26;100568.50;4999255;28;20129;-75
2022/09/14 04:29:49;;;;;;;9.27;2.78;;;;;;;17.01;75.73;100579.06;5017356;28;20370;-76
2022/09/14 04:32:15;;;;;;;7.85;2.50;;;;;;;17.09;74.49;100573.56;5016446;28;20034;-75
2022/09/14 04:34:41;;;;;;;6.53;2.30;;;;;;;17.11;74.83;100572.63;5016746;28;20108;-75
2022/09/14 04:37:06;;;;;;;8.85;2.40;;;;;;;17.13;73.57;100564.56;5016885;28;20466;-75
2022/09/14 04:39:32;;;;;;;8.00;2.35;;;;;;;17.10;73.61;100562.84;5016527;28;20038;-75
2022/09/14 04:41:57;;;;;;;6.25;2.28;;;;;;;17.15;73.70;100565.44;5016845;28;20029;-76
2022/09/14 04:44:22;;;;;;;8.52;2.20;;;;;;;17.11;72.94;100556.59;5016249;28;20068;-76
2022/09/14 04:46:48;;;;;;;7.70;2.33;;;;;;;17.15;73.07;100558.28;5016486;28;20143;-76
2022/09/14 04:49:17;;;;;;;5.55;2.10;;;;;;;17.14;73.00;100561.88;4998807;28;20478;-77
2022/09/14 04:51:43;;;;;;;8.43;2.40;;;;;;;17.13;72.80;100559.22;5016103;28;20073;-78
2022/09/14 04:54:13;;;;;;;13.10;2.50;;;;;;;17.12;72.96;100557.47;5016334;28;20026;-76
2022/09/14 04:56:38;;;;;;;7.95;2.28;;;;;;;17.02;72.81;100555.00;5016332;28;20042;-76
2022/09/14 04:59:04;;;;;;;9.13;2.17;;;;;;;17.03;73.45;100556.75;4998610;28;20037;-76
2022/09/14 05:01:36;;;;;;;8.52;2.22;;;;;;;16.93;73.50;100540.97;5016303;28;20058;-77
2022/09/14 05:04:02;;;;;;;4.70;2.05;;;;;;;16.91;73.97;100537.44;5016430;28;20034;-76
2022/09/14 05:06:31;;;;;;;5.18;1.98;;;;;;;16.93;74.59;100538.31;5014903;28;20037;-76
2022/09/14 05:08:58;;;;;;;7.93;2.20;;;;;;;16.85;74.29;100535.78;5016011;28;20029;-76
2022/09/14 05:11:29;;;;;;;7.45;2.25;;;;;;;16.84;74.79;100538.50;5015792;28;20034;-76
2022/09/14 05:13:56;;;;;;;8.88;2.45;;;;;;;16.83;74.55;100528.69;4999181;28;20033;-77
2022/09/14 05:16:32;;;;;;;6.22;2.08;;;;;;;16.90;74.05;100531.22;4999191;28;20087;-76
2022/09/14 05:19:00;;;;;;;8.13;2.13;;;;;;;16.90;74.14;100533.88;5016181;28;20062;-76
2022/09/14 05:21:27;;;;;;;12.68;2.40;;;;;;;16.93;74.23;100527.63;5015852;28;20030;-76
2022/09/14 05:24:01;;;;;;;6.57;2.17;;;;;;;16.89;74.52;100532.13;5016245;28;20052;-76
2022/09/14 05:26:28;;;;;;;6.53;2.40;;;;;;;16.86;74.04;100542.88;5015842;28;20112;-76
2022/09/14 05:28:55;;;;;;;7.32;2.42;;;;;;;16.89;73.96;100548.16;5016242;28;20034;-76
2022/09/14 05:31:25;;;;;;;7.32;2.13;;;;;;;16.96;74.22;100546.25;5015975;28;20033;-76
2022/09/14 05:33:51;;;;;;;6.80;2.55;;;;;;;16.93;74.57;100557.84;5015715;28;20052;-76
2022/09/14 05:36:17;;;;;;;8.18;2.40;;;;;;;16.89;75.06;100557.94;5015625;28;20034;-77
2022/09/14 05:38:43;;;;;;;9.70;2.58;;;;;;;16.86;75.78;100555.34;5014281;28;20025;-77
2022/09/14 05:41:12;;;;;;;10.38;2.47;;;;;;;16.84;75.55;100554.50;5015588;28;20034;-76
2022/09/14 05:43:38;;;;;;;7.47;2.63;;;;;;;16.77;76.16;100562.59;5015473;28;20502;-76
2022/09/14 05:46:06;;;;;;;7.28;2.50;;;;;;;16.73;76.36;100554.69;5015473;28;20034;-75
2022/09/14 05:48:33;;;;;;;8.55;2.50;;;;;;;16.80;76.75;100558.13;5015270;28;20030;-75
2022/09/14 05:50:59;;;;;;;8.93;3.55;;;;;;;16.80;76.51;100559.00;4997586;28;20034;-75
2022/09/14 05:53:26;;;;;;;8.90;2.47;;;;;;;16.90;76.16;100563.25;5015206;28;20041;-75
2022/09/14 05:56:09;;;;;;;6.80;2.63;;;;;;;16.92;76.28;100550.78;4997690;28;20088;-75
2022/09/14 05:58:36;;;;;;;7.05;2.38;;;;;;;16.85;76.90;100565.13;5015790;28;20030;-74
2022/09/14 06:01:21;;;;;;;9.90;2.80;;;;;;;16.83;76.46;100563.38;5015393;28;20034;-74
2022/09/14 06:03:47;;;;;;;7.43;2.45;;;;;;;16.84;76.85;100557.16;4998312;28;20401;-75
2022/09/14 06:06:15;;;;;;;4.35;2.30;;;;;;;16.79;77.29;100562.59;5015212;28;20034;-75
2022/09/14 06:08:41;;;;;;;6.38;2.13;;;;;;;16.80;77.45;100567.03;5014683;28;20459;-77
2022/09/14 06:11:13;;;;;;;7.05;2.50;;;;;;;16.77;77.69;100567.94;5014989;28;20061;-74
2022/09/14 06:13:39;;;;;;;9.68;6.30;;;;;;;16.81;78.16;100574.09;5015313;28;20116;-74
2022/09/14 06:16:10;;;;;;;8.75;2.67;;;;;;;16.72;77.44;100572.50;4997267;28;20065;-75
2022/09/14 06:18:37;;;;;;;7.57;2.60;;;;;;;16.70;77.28;100579.63;5015458;28;20022;-75
2022/09/14 06:21:04;;;;;;;6.53;2.38;;;;;;;16.68;78.17;100573.44;4997753;28;20079;-74
2022/09/14 06:23:30;;;;;;;7.78;2.40;;;;;;;16.69;77.82;100574.31;5014877;28;20049;-74
2022/09/14 06:25:57;;;;;;;7.03;2.40;;;;;;;16.76;77.26;100566.19;5014681;28;20034;-74
2022/09/14 06:28:24;;;;;;;6.65;2.50;;;;;;;16.75;76.85;100569.78;4997497;28;20099;-74
2022/09/14 06:30:49;;;;;;;10.35;2.80;;;;;;;16.73;76.94;100576.03;5015173;28;20034;-74
2022/09/14 06:33:15;;;;;;;8.40;2.40;;;;;;;16.67;77.01;100578.81;4997756;28;20037;-75
2022/09/14 06:35:41;;;;;;;8.95;2.65;;;;;;;16.74;76.71;100573.38;5014212;28;20050;-75
2022/09/14 06:38:07;;;;;;;8.88;2.70;;;;;;;16.68;76.71;100570.75;5014805;28;20474;-75
2022/09/14 06:40:33;;;;;;;5.35;2.40;;;;;;;16.80;76.64;100566.13;5014512;28;20026;-75
2022/09/14 06:43:01;;;;;;;7.32;2.40;;;;;;;16.84;76.80;100557.16;5014631;28;20030;-76
2022/09/14 06:45:29;;;;;;;6.95;2.30;;;;;;;16.88;76.52;100556.19;5014464;28;20037;-76
2022/09/14 06:47:54;;;;;;;10.35;2.65;;;;;;;16.89;76.81;100547.28;5014205;28;20417;-76
2022/09/14 06:50:20;;;;;;;7.22;2.58;;;;;;;16.87;75.97;100543.75;5014377;28;20084;-76
2022/09/14 06:52:45;;;;;;;8.30;2.20;;;;;;;16.80;76.52;100548.34;5014005;28;20423;-74
2022/09/14 06:55:10;;;;;;;5.57;2.20;;;;;;;16.74;76.96;100544.00;5014236;28;20045;-76
2022/09/14 06:57:36;;;;;;;12.65;2.83;;;;;;;16.78;77.08;100551.00;5013678;28;20034;-74
2022/09/14 07:00:03;;;;;;;7.05;2.80;;;;;;;16.71;77.42;100540.47;5014033;28;20124;-75
2022/09/14 07:02:29;;;;;;;4.72;2.15;;;;;;;16.70;77.34;100541.38;5013666;28;20033;-75
2022/09/14 07:04:54;;;;;;;5.10;2.35;;;;;;;16.73;77.16;100544.03;5014174;28;20470;-75
2022/09/14 07:07:20;;;;;;;11.15;3.05;;;;;;;16.59;78.38;100538.91;5013902;28;20042;-74
2022/09/14 07:09:45;;;;;;;6.63;2.50;;;;;;;16.59;78.96;100543.38;5014550;28;20033;-75
2022/09/14 07:12:11;;;;;;;7.15;2.40;;;;;;;16.58;78.31;100544.28;5014023;28;20045;-74
2022/09/14 07:14:37;;;;;;;7.32;2.70;;;;;;;16.58;78.96;100544.28;5013690;28;20034;-74
2022/09/14 07:17:02;;;;;;;9.18;2.42;;;;;;;16.54;79.41;100538.13;5013962;28;20030;-77
2022/09/14 07:19:28;;;;;;;6.72;2.40;;;;;;;16.56;77.98;100540.75;5014029;28;20041;-75
2022/09/14 07:21:54;;;;;;;9.50;2.65;;;;;;;16.58;79.29;100530.97;5014747;28;20476;-76
2022/09/14 07:24:19;;;;;;;7.30;2.60;;;;;;;16.47;79.40;100537.34;5013877;28;20552;-76
2022/09/14 07:26:45;;;;;;;7.28;2.53;;;;;;;16.47;78.64;100526.69;5014424;28;20517;-73
2022/09/14 07:29:14;;;;;;;7.55;2.50;;;;;;;16.45;79.52;100527.63;5014167;28;20030;-72
2022/09/14 07:31:41;;;;;;;7.68;2.90;;;;;;;16.46;79.40;100529.38;5014493;28;20081;-74
2022/09/14 07:34:07;;;;;;;7.95;2.72;;;;;;;16.45;79.30;100533.84;5014646;28;20029;-72
2022/09/14 07:36:35;;;;;;;7.43;2.50;;;;;;;16.55;79.30;100528.34;5015103;28;20121;-72
2022/09/14 07:39:02;;;;;;;8.63;2.70;;;;;;;16.65;79.36;100538.78;5014791;28;20085;-71
2022/09/14 07:41:29;;;;;;;10.90;2.70;;;;;;;16.62;79.42;100530.88;5014176;28;20037;-73
2022/09/14 07:43:59;;;;;;;6.88;2.60;;;;;;;16.65;79.17;100535.25;5014120;28;20030;-73
2022/09/14 07:46:25;;;;;;;7.50;3.40;;;;;;;16.64;79.32;100530.81;5013987;28;20089;-74
2022/09/14 07:48:59;;;;;;;9.35;4.20;;;;;;;16.60;79.76;100523.78;5013696;28;20058;-73
2022/09/14 07:51:26;;;;;;;7.70;2.85;;;;;;;16.61;80.50;100536.22;5014267;28;20037;-73
2022/09/14 07:53:52;;;;;;;8.35;2.97;;;;;;;16.59;80.20;100530.91;5013567;28;20524;-73
2022/09/14 07:56:18;;;;;;;6.63;2.75;;;;;;;16.68;79.21;100528.06;5014376;28;20500;-74
2022/09/14 07:58:43;;;;;;;7.63;3.00;;;;;;;16.76;78.66;100530.63;5014696;28;20042;-73
2022/09/14 08:01:14;;;;;;;8.43;2.80;;;;;;;16.81;79.08;100523.41;5018688;28;20030;-76
2022/09/14 08:03:42;;;;;;;5.97;2.88;;;;;;;16.76;78.83;100520.84;5020181;28;20029;-77
2022/09/14 08:06:13;;;;;;;8.43;3.63;;;;;;;16.81;79.85;100527.88;5015389;28;20034;-74
2022/09/14 08:08:40;;;;;;;7.45;3.28;;;;;;;16.81;78.95;100530.53;5013394;28;20041;-76
2022/09/14 08:11:12;;;;;;;7.35;3.47;;;;;;;16.87;78.51;100535.72;5013599;28;20037;-74
2022/09/14 08:13:40;;;;;;;7.85;3.28;;;;;;;16.86;78.97;100529.53;5015584;28;20105;-76
2022/09/14 08:16:06;;;;;;;8.57;3.90;;;;;;;16.84;79.38;100522.47;5016906;28;20052;-76
2022/09/14 08:18:34;;;;;;;11.77;4.32;;;;;;;16.82;80.40;100518.94;4999556;28;20363;-77
2022/09/14 08:21:08;;;;;;;11.57;4.30;;;;;;;16.81;79.70;100522.53;5017672;28;20072;-77
2022/09/14 08:23:34;;;;;;;9.55;4.20;;;;;;;16.75;80.23;100516.41;4999527;28;20112;-77
2022/09/14 08:26:09;;;;;;;9.20;4.22;;;;;;;16.80;80.63;100510.97;5017457;28;20040;-77
2022/09/14 08:28:35;;;;;;;11.45;4.10;;;;;;;16.82;80.85;100521.59;4999041;28;20470;-77
2022/09/14 08:31:12;;;;;;;9.57;4.22;;;;;;;16.85;81.37;100525.09;5016938;28;20080;-77
2022/09/14 08:33:41;;;;;;;10.70;4.57;;;;;;;16.85;82.05;100517.09;5017485;28;20030;-77
2022/09/14 08:36:08;;;;;;;8.30;4.07;;;;;;;16.90;81.34;100520.53;5016583;28;20040;-77
2022/09/14 08:38:33;;;;;;;10.60;4.50;;;;;;;16.93;80.24;100528.50;4999180;28;20033;-78
2022/09/14 08:41:24;;;;;;;5.93;3.70;;;;;;;16.89;80.44;100526.81;5017481;28;20026;-77
2022/09/14 08:43:50;;;;;;;8.43;3.83;;;;;;;16.95;79.88;100536.47;5016972;28;20030;-79
2022/09/14 08:46:29;;;;;;;7.40;4.03;;;;;;;16.93;80.00;100533.84;5016637;28;20076;-78
2022/09/14 08:48:55;;;;;;;8.02;3.78;;;;;;;16.89;80.15;100531.25;5016304;28;20470;-78
2022/09/14 08:51:21;;;;;;;9.65;4.00;;;;;;;16.89;80.76;100533.94;5016498;28;20034;-78
2022/09/14 08:53:51;;;;;;;10.85;4.30;;;;;;;16.87;81.29;100533.94;5016417;28;20038;-77
2022/09/14 08:56:31;;;;;;;10.80;4.10;;;;;;;16.95;80.85;100531.13;5016620;28;20454;-78
2022/09/14 08:59:20;;;;;;;8.15;4.15;;;;;;;16.92;81.38;100539.22;5016618;28;20037;-78
2022/09/14 09:01:58;;;;;;;10.00;4.35;;;;;;;16.93;81.58;100535.63;5016619;28;20037;-78
2022/09/14 09:04:41;;;;;;;13.63;6.93;;;;;;;17.05;80.06;100538.06;5017148;28;20026;-77
2022/09/14 09:07:06;;;;;;;;;;;;;;;17.20;79.21;100543.03;5016705;28;20080;-77
2022/09/14 09:09:37;;;;;;;7.97;3.93;;;;;;;17.16;80.14;100541.34;5015819;28;20015;-76
2022/09/14 09:12:03;;;;;;;9.95;4.18;;;;;;;17.11;79.70;100543.25;5016095;28;20399;-76
2022/09/14 09:14:35;;;;;;;7.25;4.00;;;;;;;17.07;80.34;100546.88;4998633;28;20037;-76
2022/09/14 09:17:09;;;;;;;7.65;4.18;;;;;;;17.05;80.06;100542.50;5016079;28;20037;-76
2022/09/14 09:19:56;;;;;;;6.78;3.80;;;;;;;17.01;79.18;100529.22;4998159;28;20034;-77
2022/09/14 09:22:24;;;;;;;8.73;3.85;;;;;;;17.01;79.51;100526.56;5016194;28;20053;-76
2022/09/14 09:24:54;;;;;;;10.00;3.97;;;;;;;17.05;79.71;100530.03;5015130;28;20467;-76
2022/09/14 09:27:21;;;;;;;8.43;4.00;;;;;;;17.05;79.84;100538.06;5015499;28;20026;-76
2022/09/14 09:29:47;;;;;;;7.88;3.95;;;;;;;16.99;79.66;100523.03;5015806;28;20107;-76
2022/09/14 09:32:22;;;;;;;11.80;4.10;;;;;;;16.98;79.81;100531.06;4998325;28;20470;-76
2022/09/14 09:34:47;;;;;;;7.78;4.35;;;;;;;16.98;79.99;100531.06;5015725;28;20390;-77
2022/09/14 09:37:19;;;;;;;10.02;4.03;;;;;;;17.03;79.40;100527.38;4998157;28;20030;-76
2022/09/14 09:39:45;;;;;;;8.80;4.07;;;;;;;17.07;79.47;100528.19;5015970;28;20032;-76
2022/09/14 09:42:28;;;;;;;9.90;4.22;;;;;;;17.04;81.02;100530.94;5015336;28;20039;-76
2022/09/14 09:44:55;;;;;;;11.30;4.40;;;;;;;16.94;80.10;100524.91;5015602;28;20026;-76
2022/09/14 09:47:28;;;;;;;12.32;4.80;;;;;;;16.95;81.25;100528.44;5016154;28;20034;-76
2022/09/14 09:50:00;;;;;;;12.57;5.15;;;;;;;16.96;82.05;100528.44;5015749;28;20072;-76
2022/09/14 09:52:26;;;;;;;12.65;4.80;;;;;;;16.99;81.10;100517.69;5015369;28;20034;-76
2022/09/14 09:54:54;;;;;;;11.05;4.65;;;;;;;16.99;82.22;100524.81;5015437;28;20045;-76
2022/09/14 09:57:33;;;;;;;10.70;4.88;;;;;;;16.98;81.18;100526.59;5015592;28;20026;-76
2022/09/14 10:00:17;;;;;;;15.40;4.78;;;;;;;16.94;82.54;100534.72;5015906;28;20115;-76
2022/09/14 10:02:42;;;;;;;10.20;4.55;;;;;;;16.91;81.44;100524.97;4997887;28;20473;-76
2022/09/14 10:05:07;;;;;;;6.82;4.15;;;;;;;16.89;82.25;100518.78;5015204;28;20041;-75
2022/09/14 10:08:02;;;;;;;13.68;4.70;;;;;;;16.99;81.67;100523.03;5015082;28;20536;-76
2022/09/14 10:10:34;;;;;;;9.65;4.43;;;;;;;17.10;80.64;100525.47;5015341;28;20117;-76
2022/09/14 10:13:02;;;;;;;10.20;4.50;;;;;;;17.18;80.37;100530.66;5014768;28;20034;-76
2022/09/14 10:15:32;;;;;;;10.40;4.72;;;;;;;17.17;82.11;100532.47;5014737;28;20112;-76
2022/09/14 10:18:10;;;;;;;9.00;4.90;;;;;;;17.28;80.08;100527.75;5015102;28;20041;-76
2022/09/14 10:20:41;;;;;;;12.00;4.90;;;;;;;17.33;79.96;100532.97;5014612;28;20032;-76
2022/09/14 10:23:19;;;;;;;9.30;5.00;;;;;;;17.44;80.59;100527.41;5014468;28;20521;-76
2022/09/14 10:25:50;;;;;;;11.10;5.07;;;;;;;17.50;80.47;100532.59;4997048;28;20041;-76
2022/09/14 10:28:30;;;;;;;7.57;4.73;;;;;;;17.58;79.32;100519.09;5014764;28;20034;-76
2022/09/14 10:31:06;;;;;;;7.40;5.05;;;;;;;17.60;79.82;100526.16;5014702;28;20104;-76
2022/09/14 10:33:31;;;;;;;8.15;4.72;;;;;;;17.61;78.84;100525.25;5014671;28;20032;-76
2022/09/14 10:36:22;;;;;;;9.25;4.68;;;;;;;17.57;79.50;100525.34;5014781;28;20034;-76
2022/09/14 10:39:27;;;;;;;6.85;4.47;;;;;;;17.54;79.84;100520.94;5013618;28;20436;-77
2022/09/14 10:42:02;;;;;;;13.77;5.30;;;;;;;17.45;78.73;100522.03;5014468;28;20056;-77
2022/09/14 10:44:39;;;;;;;8.05;4.40;;;;;;;17.44;78.33;100520.28;5014812;28;20053;-76
2022/09/14 10:47:41;;;;;;;8.63;4.85;;;;;;;17.43;79.18;100523.88;4997348;28;20034;-77
2022/09/14 10:50:31;;;;;;;9.20;4.30;;;;;;;17.41;79.03;100523.00;5014790;28;20057;-76
2022/09/14 10:53:18;;;;;;;12.50;4.68;;;;;;;17.36;79.11;100518.69;5014324;28;20029;-76
2022/09/14 10:56:22;;;;;;;8.13;4.70;;;;;;;17.28;78.85;100522.41;5015048;28;20030;-79
2022/09/14 10:59:09;;;;;;;9.35;4.38;;;;;;;17.33;79.22;100513.41;4981221;28;20045;-78
2022/09/14 11:02:09;;;;;;;7.47;4.43;;;;;;;17.30;79.08;100516.13;4997273;28;20124;-77
2022/09/14 11:04:52;;;;;;;10.23;4.43;;;;;;;17.27;78.34;100504.63;5014172;28;20033;-77
2022/09/14 11:07:31;;;;;;;6.40;4.30;;;;;;;17.25;77.65;100511.78;5014051;28;20030;-77
2022/09/14 11:10:26;;;;;;;9.00;4.43;;;;;;;17.24;78.97;100509.16;5013844;28;20498;-76
2022/09/14 11:13:43;;;;;;;7.45;4.13;;;;;;;17.36;78.18;100514.22;5013994;28;20053;-76
2022/09/14 11:16:22;;;;;;;8.63;4.53;;;;;;;17.31;77.69;100518.81;4943673;28;20506;-76
2022/09/14 11:19:11;;;;;;;8.63;4.68;;;;;;;17.37;78.15;100515.09;5014400;28;20088;-76
2022/09/14 11:21:59;;;;;;;7.22;4.72;;;;;;;17.33;78.49;100500.94;5014333;28;20030;-76
2022/09/14 11:24:36;;;;;;;7.15;4.43;;;;;;;17.38;78.45;100504.38;5014350;28;20072;-76
2022/09/14 11:27:10;;;;;;;7.30;4.72;;;;;;;17.40;78.54;100505.22;5013993;28;20475;-76
2022/09/14 11:29:52;;;;;;;10.32;5.05;;;;;;;17.36;79.78;100505.34;5013856;28;20108;-76
2022/09/14 11:32:29;;;;;;;10.13;5.05;;;;;;;17.36;79.29;100500.88;5013801;28;20026;-76
2022/09/14 11:35:10;;;;;;;6.55;4.45;;;;;;;17.33;79.11;100497.38;4997087;28;20374;-76
2022/09/14 11:37:48;;;;;;;8.05;4.60;;;;;;;17.31;79.04;100504.56;5013939;28;20041;-76
2022/09/14 11:40:33;;;;;;;9.85;4.18;;;;;;;17.26;79.30;100502.00;5013649;28;20520;-76
2022/09/14 11:43:37;;;;;;;7.22;3.50;;;;;;;17.26;78.80;100507.34;5013872;28;20038;-76